createdAt,value
2023-01-02T00:01:29.363Z,33.10
2023-01-02T00:03:57.706Z,33.27
2023-01-02T00:06:25.301Z,33.70
2023-01-02T00:08:52.332Z,33.30
2023-01-02T00:11:19.504Z,33.37
2023-01-02T00:13:46.530Z,33.00
2023-01-02T00:16:13.621Z,33.13
2023-01-02T00:18:40.610Z,34.40
2023-01-02T00:21:08.226Z,34.17
2023-01-02T00:23:35.589Z,34.30
2023-01-02T00:26:02.556Z,31.47
2023-01-02T00:28:30.882Z,36.77
2023-01-02T00:30:58.197Z,35.47
2023-01-02T00:33:25.159Z,32.90
2023-01-02T00:35:52.195Z,36.73
2023-01-02T00:38:19.561Z,34.67
2023-01-02T00:40:46.537Z,33.17
2023-01-02T00:43:13.670Z,34.10
2023-01-02T00:45:40.679Z,35.13
2023-01-02T00:48:07.634Z,33.30
2023-01-02T00:50:34.662Z,32.70
2023-01-02T00:53:01.706Z,34.90
2023-01-02T00:55:28.764Z,35.93
2023-01-02T00:57:55.777Z,37.60
2023-01-02T01:00:24.332Z,37.20
2023-01-02T01:02:57.467Z,33.57
2023-01-02T01:05:26.280Z,34.33
2023-01-02T01:07:56.185Z,35.07
2023-01-02T01:10:25.877Z,34.07
2023-01-02T01:12:52.917Z,34.70
2023-01-02T01:15:20.015Z,36.13
2023-01-02T01:17:47.136Z,33.60
2023-01-02T01:20:14.177Z,38.67
2023-01-02T01:22:41.234Z,33.80
2023-01-02T01:25:09.275Z,35.70
2023-01-02T01:27:36.389Z,36.13
2023-01-02T01:30:05.637Z,36.40
2023-01-02T01:32:33.081Z,37.77
2023-01-02T01:35:00.170Z,38.77
2023-01-02T01:37:27.278Z,37.73
2023-01-02T01:39:56.859Z,40.83
2023-01-02T01:42:24.238Z,35.17
2023-01-02T01:44:55.729Z,34.60
2023-01-02T01:47:48.360Z,35.77
2023-01-02T01:50:35.133Z,36.40
2023-01-02T01:53:12.887Z,37.13
2023-01-02T01:56:02.466Z,35.47
2023-01-02T01:58:37.398Z,31.03
2023-01-02T02:01:05.740Z,33.80
2023-01-02T02:03:35.461Z,37.00
2023-01-02T02:06:03.899Z,35.40
2023-01-02T02:08:59.159Z,34.07
2023-01-02T02:11:27.791Z,33.37
2023-01-02T02:14:00.483Z,35.20
2023-01-02T02:17:11.950Z,36.03
2023-01-02T02:20:15.689Z,34.37
2023-01-02T02:22:48.589Z,33.80
2023-01-02T02:25:37.705Z,37.70
2023-01-02T02:28:46.708Z,34.40
2023-01-02T02:31:46.811Z,32.70
2023-01-02T02:34:36.817Z,34.53
2023-01-02T02:37:49.058Z,34.77
2023-01-02T02:41:08.988Z,32.90
2023-01-02T02:43:43.162Z,31.57
2023-01-02T02:46:28.799Z,37.90
2023-01-02T02:49:11.401Z,36.07
2023-01-02T02:51:52.727Z,34.80
2023-01-02T02:54:27.308Z,38.63
2023-01-02T02:56:56.980Z,38.67
2023-01-02T02:59:24.088Z,34.93
2023-01-02T03:01:51.577Z,35.43
2023-01-02T03:04:23.001Z,36.07
2023-01-02T03:07:08.686Z,33.33
2023-01-02T03:10:08.101Z,34.20
2023-01-02T03:12:58.499Z,35.50
2023-01-02T03:15:38.420Z,32.77
2023-01-02T03:18:33.249Z,33.40
2023-01-02T03:21:13.202Z,33.37
2023-01-02T03:23:46.573Z,30.90
2023-01-02T03:26:20.359Z,30.67
2023-01-02T03:28:55.861Z,29.77
2023-01-02T03:31:27.073Z,31.20
2023-01-02T03:34:03.989Z,31.47
2023-01-02T03:36:34.075Z,31.80
2023-01-02T03:39:17.047Z,33.10
2023-01-02T03:41:59.955Z,33.37
2023-01-02T03:44:38.905Z,33.20
2023-01-02T03:47:41.591Z,33.30
2023-01-02T03:50:37.618Z,33.00
2023-01-02T03:53:04.590Z,30.43
2023-01-02T03:55:37.399Z,32.67
2023-01-02T03:58:22.694Z,32.93
2023-01-02T04:01:05.415Z,30.20
2023-01-02T04:03:58.000Z,32.40
2023-01-02T04:06:33.570Z,29.27
2023-01-02T04:09:12.608Z,30.13
2023-01-02T04:11:47.148Z,32.40
2023-01-02T04:14:49.220Z,33.67
2023-01-02T04:17:18.769Z,32.23
2023-01-02T04:19:56.140Z,31.40
2023-01-02T04:22:31.824Z,31.47
2023-01-02T04:25:11.313Z,31.17
2023-01-02T04:27:54.487Z,33.03
2023-01-02T04:30:21.690Z,32.63
2023-01-02T04:32:49.262Z,32.80
2023-01-02T04:35:20.852Z,32.30
2023-01-02T04:37:48.729Z,32.93
2023-01-02T04:40:17.803Z,31.30
2023-01-02T04:42:44.833Z,33.63
2023-01-02T04:45:12.984Z,31.83
2023-01-02T04:47:40.458Z,33.80
2023-01-02T04:50:09.451Z,34.50
2023-01-02T04:52:37.310Z,34.80
2023-01-02T04:55:08.585Z,35.53
2023-01-02T04:57:37.189Z,35.13
2023-01-02T05:00:06.600Z,32.90
2023-01-02T05:02:39.085Z,34.90
2023-01-02T05:05:08.507Z,32.20
2023-01-02T05:07:37.710Z,32.53
2023-01-02T05:10:07.202Z,33.00
2023-01-02T05:12:35.547Z,33.93
2023-01-02T05:15:04.960Z,33.87
2023-01-02T05:17:42.432Z,42.13
2023-01-02T05:20:13.115Z,36.13
2023-01-02T05:23:00.729Z,40.33
2023-01-02T05:25:31.762Z,41.30
2023-01-02T05:27:58.854Z,39.20
2023-01-02T05:30:26.182Z,35.10
2023-01-02T05:32:53.351Z,32.57
2023-01-02T05:35:20.761Z,33.93
2023-01-02T05:37:47.892Z,31.47
2023-01-02T05:40:15.060Z,33.10
2023-01-02T05:42:42.011Z,35.77
2023-01-02T05:45:09.546Z,31.40
2023-01-02T05:47:36.523Z,31.30
2023-01-02T05:50:03.781Z,37.50
2023-01-02T05:52:30.762Z,32.77
2023-01-02T05:54:57.731Z,33.03
2023-01-02T05:57:24.800Z,34.00
2023-01-02T05:59:51.746Z,33.07
2023-01-02T06:02:18.888Z,33.00
2023-01-02T06:04:46.232Z,31.87
2023-01-02T06:07:13.323Z,33.57
2023-01-02T06:09:40.315Z,29.70
2023-01-02T06:12:07.340Z,29.77
2023-01-02T06:14:34.280Z,33.27
2023-01-02T06:17:01.276Z,32.23
2023-01-02T06:19:28.250Z,32.43
2023-01-02T06:21:55.180Z,30.83
2023-01-02T06:24:22.142Z,32.93
2023-01-02T06:26:49.769Z,32.73
2023-01-02T06:29:17.189Z,35.23
2023-01-02T06:31:50.821Z,33.10
2023-01-02T06:34:18.520Z,36.50
2023-01-02T06:36:45.496Z,37.60
2023-01-02T06:39:12.523Z,35.40
2023-01-02T06:41:39.466Z,33.57
2023-01-02T06:44:06.518Z,33.50
2023-01-02T06:46:33.555Z,30.80
2023-01-02T06:49:00.657Z,30.60
2023-01-02T06:51:27.658Z,34.83
2023-01-02T06:53:55.699Z,32.33
2023-01-02T06:56:23.620Z,32.87
2023-01-02T06:58:50.691Z,32.87
2023-01-02T07:01:23.007Z,29.20
2023-01-02T07:03:50.683Z,33.37
2023-01-02T07:06:21.757Z,31.40
2023-01-02T07:08:49.704Z,31.53
2023-01-02T07:11:22.362Z,33.90
2023-01-02T07:13:52.697Z,32.67
2023-01-02T07:16:22.375Z,31.77
2023-01-02T07:18:51.338Z,32.30
2023-01-02T07:21:18.470Z,30.40
2023-01-02T07:23:45.692Z,28.97
2023-01-02T07:26:14.009Z,26.50
2023-01-02T07:28:41.658Z,26.07
2023-01-02T07:31:15.352Z,27.10
2023-01-02T07:33:42.808Z,26.50
2023-01-02T07:36:19.161Z,29.07
2023-01-02T07:38:51.808Z,30.10
2023-01-02T07:41:23.741Z,29.97
2023-01-02T07:43:51.624Z,29.77
2023-01-02T07:46:20.149Z,28.90
2023-01-02T07:48:47.287Z,24.80
2023-01-02T07:51:18.451Z,26.20
2023-01-02T07:53:48.140Z,23.37
2023-01-02T07:56:15.235Z,22.27
2023-01-02T07:58:42.224Z,27.37
2023-01-02T08:01:13.350Z,27.50
2023-01-02T08:03:41.211Z,27.90
2023-01-02T08:06:15.023Z,28.70
2023-01-02T08:08:42.936Z,25.87
2023-01-02T08:11:13.839Z,29.90
2023-01-02T08:13:41.335Z,25.50
2023-01-02T08:16:18.015Z,25.57
2023-01-02T08:18:47.132Z,26.50
2023-01-02T08:21:15.007Z,24.43
2023-01-02T08:23:42.009Z,26.30
2023-01-02T08:26:11.463Z,29.30
2023-01-02T08:28:41.142Z,27.40
2023-01-02T08:31:11.596Z,29.57
2023-01-02T08:33:38.696Z,28.77
2023-01-02T08:36:06.083Z,28.47
2023-01-02T08:38:33.026Z,28.73
2023-01-02T08:41:00.364Z,30.00
2023-01-02T08:43:27.915Z,27.87
2023-01-02T08:45:56.170Z,27.37
2023-01-02T08:48:23.356Z,26.77
2023-01-02T08:50:50.810Z,29.50
2023-01-02T08:53:18.646Z,29.37
2023-01-02T08:55:45.941Z,28.10
2023-01-02T08:58:12.914Z,27.63
2023-01-02T09:00:40.445Z,30.60
2023-01-02T09:03:07.472Z,32.40
2023-01-02T09:05:34.597Z,28.77
2023-01-02T09:08:03.010Z,32.97
2023-01-02T09:10:30.019Z,29.40
2023-01-02T09:12:58.975Z,27.47
2023-01-02T09:15:25.925Z,31.73
2023-01-02T09:17:52.980Z,33.33
2023-01-02T09:20:20.119Z,32.20
2023-01-02T09:22:47.085Z,29.97
2023-01-02T09:25:16.491Z,30.20
2023-01-02T09:27:47.712Z,30.77
2023-01-02T09:30:14.847Z,30.50
2023-01-02T09:32:41.868Z,29.50
2023-01-02T09:35:09.246Z,30.23
2023-01-02T09:37:36.266Z,35.00
2023-01-02T09:40:03.523Z,31.63
2023-01-02T09:42:32.624Z,30.93
2023-01-02T09:45:08.615Z,30.20
2023-01-02T09:47:39.719Z,29.53
2023-01-02T09:50:19.081Z,28.67
2023-01-02T09:52:54.696Z,32.93
2023-01-02T09:55:45.870Z,27.80
2023-01-02T09:58:38.801Z,30.60
2023-01-02T10:01:14.117Z,28.00
2023-01-02T10:04:07.798Z,30.17
2023-01-02T10:07:11.321Z,30.77
2023-01-02T10:09:54.650Z,30.57
2023-01-02T10:12:44.390Z,28.70
2023-01-02T10:15:22.074Z,28.73
2023-01-02T10:17:54.143Z,30.53
2023-01-02T10:20:37.581Z,29.20
2023-01-02T10:23:13.632Z,29.80
2023-01-02T10:25:52.870Z,28.90
2023-01-02T10:28:46.446Z,30.20
2023-01-02T10:31:44.434Z,31.80
2023-01-02T10:34:18.356Z,27.67
2023-01-02T10:36:47.984Z,31.87
2023-01-02T10:39:18.031Z,27.33
2023-01-02T10:41:52.631Z,29.57
2023-01-02T10:44:33.860Z,29.70
2023-01-02T10:47:23.177Z,26.60
2023-01-02T10:49:53.114Z,28.17
2023-01-02T10:53:10.741Z,30.10
2023-01-02T10:55:41.671Z,26.27
2023-01-02T10:58:23.415Z,28.77
2023-01-02T11:01:04.639Z,30.93
2023-01-02T11:03:31.839Z,29.00
2023-01-02T11:06:16.037Z,29.40
2023-01-02T11:09:04.815Z,28.00
2023-01-02T11:11:33.156Z,27.80
2023-01-02T11:14:11.592Z,28.73
2023-01-02T11:16:40.105Z,31.53
2023-01-02T11:19:07.664Z,30.13
2023-01-02T11:21:37.530Z,32.43
2023-01-02T11:24:12.980Z,28.67
2023-01-02T11:26:41.233Z,28.27
2023-01-02T11:29:16.700Z,30.50
2023-01-02T11:31:57.157Z,26.10
2023-01-02T11:34:37.561Z,27.30
2023-01-02T11:37:13.701Z,27.97
2023-01-02T11:39:41.791Z,28.57
2023-01-02T11:42:27.491Z,31.17
2023-01-02T11:45:15.552Z,28.17
2023-01-02T11:47:58.023Z,29.23
2023-01-02T11:50:27.017Z,30.10
2023-01-02T11:53:11.865Z,29.10
2023-01-02T11:55:59.061Z,27.10
2023-01-02T11:58:56.340Z,27.50
2023-01-02T12:01:52.788Z,28.70
2023-01-02T12:04:20.245Z,27.30
2023-01-02T12:07:01.069Z,24.87
2023-01-02T12:09:55.467Z,25.70
2023-01-02T12:13:13.196Z,26.67
2023-01-02T12:16:06.565Z,24.10
2023-01-02T12:19:14.672Z,28.47
2023-01-02T12:22:03.056Z,26.67
2023-01-02T12:25:02.769Z,26.57
2023-01-02T12:27:41.551Z,28.40
2023-01-02T12:30:20.215Z,31.37
2023-01-02T12:33:17.804Z,28.97
2023-01-02T12:36:55.482Z,27.33
2023-01-02T12:39:41.041Z,28.73
2023-01-02T12:42:29.458Z,27.83
2023-01-02T12:44:58.691Z,30.93
2023-01-02T12:47:55.884Z,35.47
2023-01-02T12:50:48.996Z,34.50
2023-01-02T12:53:25.728Z,31.10
2023-01-02T12:56:13.787Z,30.37
2023-01-02T12:58:55.781Z,31.23
2023-01-02T13:01:58.647Z,28.67
2023-01-02T13:04:48.434Z,24.27
2023-01-02T13:07:32.455Z,31.20
2023-01-02T13:10:05.157Z,24.20
2023-01-02T13:12:35.856Z,25.03
2023-01-02T13:15:29.070Z,23.50
2023-01-02T13:18:09.808Z,22.80
2023-01-02T13:20:42.497Z,23.53
2023-01-02T13:23:12.220Z,25.77
2023-01-02T13:25:50.135Z,24.37
2023-01-02T13:28:22.755Z,25.50
2023-01-02T13:30:57.555Z,23.30
2023-01-02T13:33:46.489Z,23.73
2023-01-02T13:36:28.518Z,24.60
2023-01-02T13:39:01.081Z,23.53
2023-01-02T13:41:30.825Z,21.60
2023-01-02T13:44:01.833Z,24.30
2023-01-02T13:49:21.853Z,19.63
2023-01-02T13:51:48.986Z,18.77
2023-01-02T13:54:21.935Z,19.50
2023-01-02T13:57:29.283Z,22.30
2023-01-02T14:00:46.936Z,22.10
2023-01-02T14:03:24.511Z,19.13
2023-01-02T14:06:01.615Z,19.53
2023-01-02T14:08:41.313Z,20.07
2023-01-02T14:11:28.246Z,18.50
2023-01-02T14:13:55.938Z,19.13
2023-01-02T14:16:23.009Z,20.13
2023-01-02T14:19:24.082Z,21.80
2023-01-02T14:22:05.959Z,21.70
2023-01-02T14:24:42.776Z,19.97
2023-01-02T14:27:15.729Z,20.00
2023-01-02T14:29:57.395Z,20.00
2023-01-02T14:32:43.592Z,21.80
2023-01-02T14:35:13.611Z,22.00
2023-01-02T14:37:53.217Z,22.27
2023-01-02T14:40:23.247Z,22.10
2023-01-02T14:43:32.656Z,21.33
2023-01-02T14:46:24.788Z,23.53
2023-01-02T14:49:25.334Z,22.23
2023-01-02T14:52:07.588Z,21.43
2023-01-02T14:54:56.056Z,22.33
2023-01-02T14:57:35.337Z,22.40
2023-01-02T15:00:12.009Z,21.53
2023-01-02T15:02:44.982Z,24.07
2023-01-02T15:05:34.679Z,20.53
2023-01-02T15:08:08.433Z,24.27
2023-01-02T15:11:20.579Z,24.00
2023-01-02T15:14:05.558Z,21.47
2023-01-02T15:16:45.785Z,23.60
2023-01-02T15:19:21.224Z,19.20
2023-01-02T15:21:48.420Z,19.90
2023-01-02T15:24:26.642Z,17.93
2023-01-02T15:26:54.413Z,18.20
2023-01-02T15:29:28.192Z,16.03
2023-01-02T15:32:00.555Z,20.37
2023-01-02T15:34:33.216Z,19.10
2023-01-02T15:37:07.125Z,17.37
2023-01-02T15:39:39.766Z,18.70
2023-01-02T15:42:31.069Z,21.50
2023-01-02T15:45:10.699Z,17.03
2023-01-02T15:47:41.796Z,19.67
2023-01-02T15:50:19.759Z,19.80
2023-01-02T15:52:52.378Z,18.20
2023-01-02T15:55:21.304Z,19.93
2023-01-02T15:57:53.674Z,18.67
2023-01-02T16:01:13.591Z,18.17
2023-01-02T16:04:02.336Z,18.27
2023-01-02T16:06:45.016Z,24.07
2023-01-02T16:09:26.999Z,26.50
2023-01-02T16:11:58.116Z,24.50
2023-01-02T16:14:45.931Z,23.50
2023-01-02T16:17:24.778Z,18.80
2023-01-02T16:20:18.822Z,20.17
2023-01-02T16:23:01.964Z,16.43
2023-01-02T16:25:34.360Z,20.37
2023-01-02T16:28:35.664Z,20.60
2023-01-02T16:31:13.510Z,21.40
2023-01-02T16:33:44.150Z,19.93
2023-01-02T16:36:25.709Z,35.20
2023-01-02T16:38:55.008Z,24.77
2023-01-02T16:41:42.215Z,25.90
2023-01-02T16:44:15.221Z,21.47
2023-01-02T16:46:50.543Z,23.33
2023-01-02T16:49:23.142Z,21.63
2023-01-02T16:51:54.727Z,22.10
2023-01-02T16:54:22.242Z,23.90
2023-01-02T16:56:50.586Z,21.67
2023-01-02T16:59:18.887Z,21.40
2023-01-02T17:01:46.041Z,20.87
2023-01-02T17:04:14.914Z,20.93
2023-01-02T17:06:41.933Z,21.63
2023-01-02T17:09:08.950Z,20.40
2023-01-02T17:11:38.222Z,21.80
2023-01-02T17:14:05.199Z,22.43
2023-01-02T17:16:32.209Z,21.57
2023-01-02T17:18:59.295Z,20.73
2023-01-02T17:21:30.920Z,20.30
2023-01-02T17:23:59.845Z,21.67
2023-01-02T17:26:26.783Z,22.90
2023-01-02T17:28:53.788Z,19.90
2023-01-02T17:31:25.509Z,21.80
2023-01-02T17:33:53.037Z,20.00
2023-01-02T17:36:20.072Z,19.13
2023-01-02T17:38:47.223Z,22.23
2023-01-02T17:41:14.287Z,18.80
2023-01-02T17:44:01.880Z,18.80
2023-01-02T17:47:04.280Z,20.87
2023-01-02T17:49:15.235Z,20.60
2023-01-02T17:51:42.206Z,22.43
2023-01-02T17:54:09.367Z,22.80
2023-01-02T17:56:36.376Z,22.13
2023-01-02T17:59:03.715Z,21.97
2023-01-02T18:01:30.943Z,21.10
2023-01-02T18:03:58.048Z,23.63
2023-01-02T18:06:24.976Z,21.07
2023-01-02T18:08:54.720Z,19.30
2023-01-02T18:11:23.069Z,20.20
2023-01-02T18:13:55.383Z,20.53
2023-01-02T18:16:35.357Z,22.03
2023-01-02T18:19:04.327Z,20.60
2023-01-02T18:21:34.827Z,20.13
2023-01-02T18:24:10.128Z,20.47
2023-01-02T18:26:37.148Z,19.60
2023-01-02T18:29:11.291Z,20.60
2023-01-02T18:31:43.567Z,21.30
2023-01-02T18:34:46.904Z,21.33
2023-01-02T18:37:22.554Z,22.50
2023-01-02T18:39:50.814Z,23.17
2023-01-02T18:42:27.046Z,24.37
2023-01-02T18:44:57.000Z,24.03
2023-01-02T18:47:36.668Z,23.57
2023-01-02T18:50:06.429Z,27.70
2023-01-02T18:52:33.926Z,22.30
2023-01-02T18:55:25.365Z,23.50
2023-01-02T18:58:09.508Z,21.73
2023-01-02T19:00:40.183Z,19.73
2023-01-02T19:03:28.301Z,20.27
2023-01-02T19:05:55.683Z,18.17
2023-01-02T19:08:24.383Z,20.23
2023-01-02T19:10:55.934Z,19.17
2023-01-02T19:13:36.353Z,21.10
2023-01-02T19:16:19.336Z,17.50
2023-01-02T19:18:49.935Z,17.20
2023-01-02T19:21:29.180Z,16.70
2023-01-02T19:24:05.465Z,15.40
2023-01-02T19:26:48.077Z,15.83
2023-01-02T19:29:35.441Z,14.27
2023-01-02T19:32:14.509Z,15.07
2023-01-02T19:34:51.303Z,15.73
2023-01-02T19:37:40.792Z,14.10
2023-01-02T19:40:23.164Z,16.10
2023-01-02T19:42:53.767Z,17.60
2023-01-02T19:45:25.774Z,17.67
2023-01-02T19:47:54.269Z,16.17
2023-01-02T19:50:26.824Z,16.40
2023-01-02T19:52:54.797Z,18.47
2023-01-02T19:55:22.355Z,17.13
2023-01-02T19:57:49.478Z,17.63
2023-01-02T20:00:19.598Z,16.67
2023-01-02T20:02:51.812Z,15.80
2023-01-02T20:05:22.844Z,17.50
2023-01-02T20:07:55.840Z,16.10
2023-01-02T20:10:23.633Z,16.43
2023-01-02T20:12:50.877Z,18.67
2023-01-02T20:15:23.815Z,18.63
2023-01-02T20:17:53.055Z,17.77
2023-01-02T20:20:24.759Z,17.60
2023-01-02T20:22:52.760Z,16.73
2023-01-02T20:25:24.654Z,17.80
2023-01-02T20:27:53.763Z,17.83
2023-01-02T20:30:24.441Z,18.70
2023-01-02T20:32:54.127Z,18.07
2023-01-02T20:35:22.116Z,17.97
2023-01-02T20:37:49.126Z,16.90
2023-01-02T20:40:16.189Z,17.30
2023-01-02T20:42:43.963Z,19.00
2023-01-02T20:45:11.547Z,15.60
2023-01-02T20:47:38.644Z,18.50
2023-01-02T20:50:06.161Z,18.53
2023-01-02T20:52:33.109Z,18.17
2023-01-02T20:55:00.221Z,18.20
2023-01-02T20:57:27.453Z,18.30
2023-01-02T20:59:54.503Z,19.37
2023-01-02T21:02:21.605Z,17.83
2023-01-02T21:04:51.695Z,18.60
2023-01-02T21:07:19.640Z,19.33
2023-01-02T21:09:47.151Z,19.17
2023-01-02T21:12:32.663Z,18.80
2023-01-02T21:14:59.837Z,19.40
2023-01-02T21:17:26.742Z,19.23
2023-01-02T21:19:53.682Z,21.10
2023-01-02T21:22:20.621Z,19.23
2023-01-02T21:24:47.898Z,19.00
2023-01-02T21:27:15.372Z,18.63
2023-01-02T21:29:43.627Z,17.97
2023-01-02T21:32:10.669Z,19.63
2023-01-02T21:34:37.729Z,18.33
2023-01-02T21:37:04.699Z,18.70
2023-01-02T21:39:32.086Z,19.83
2023-01-02T21:42:17.145Z,19.53
2023-01-02T21:44:49.304Z,20.07
2023-01-02T21:47:18.285Z,20.33
2023-01-02T21:49:45.671Z,20.70
2023-01-02T21:52:12.802Z,20.47
2023-01-02T21:54:39.883Z,20.03
2023-01-02T21:57:06.887Z,21.10
2023-01-02T21:59:34.016Z,17.87
2023-01-02T22:02:04.117Z,17.33
2023-01-02T22:04:32.723Z,19.47
2023-01-02T22:09:46.897Z,18.13
2023-01-02T22:12:13.996Z,20.00
2023-01-02T22:14:41.009Z,17.83
2023-01-02T22:17:10.886Z,21.53
2023-01-02T22:19:38.929Z,18.30
2023-01-02T22:22:06.185Z,18.60
2023-01-02T22:24:36.579Z,19.17
2023-01-02T22:27:08.862Z,18.60
2023-01-02T22:30:09.819Z,18.10
2023-01-02T22:32:23.968Z,17.80
2023-01-02T22:34:51.843Z,17.30
2023-01-02T22:37:22.619Z,17.00
2023-01-02T22:39:50.217Z,17.90
2023-01-02T22:43:00.138Z,18.23
2023-01-02T22:45:32.088Z,16.47
2023-01-02T22:48:03.781Z,18.83
2023-01-02T22:50:43.211Z,16.30
2023-01-02T22:53:22.740Z,16.57
2023-01-02T22:55:50.689Z,15.30
2023-01-02T22:58:18.630Z,17.37
2023-01-02T23:00:49.719Z,19.50
2023-01-02T23:03:17.631Z,18.43
2023-01-02T23:05:44.976Z,17.87
2023-01-02T23:08:11.958Z,18.70
2023-01-02T23:10:38.968Z,17.90
2023-01-02T23:13:06.264Z,18.60
2023-01-02T23:15:33.272Z,18.30
2023-01-02T23:18:18.913Z,16.50
2023-01-02T23:20:45.911Z,16.00
2023-01-02T23:23:12.913Z,16.17
2023-01-02T23:25:43.002Z,15.43
2023-01-02T23:28:20.503Z,15.70
2023-01-02T23:30:57.627Z,16.77
2023-01-02T23:33:24.613Z,15.33
2023-01-02T23:35:52.800Z,17.20
2023-01-02T23:38:20.686Z,17.67
2023-01-02T23:40:47.662Z,16.50
2023-01-02T23:43:14.604Z,15.20
2023-01-02T23:45:42.297Z,15.73
2023-01-02T23:48:09.257Z,16.17
2023-01-02T23:50:36.207Z,17.17
2023-01-02T23:53:03.247Z,17.07
2023-01-02T23:55:30.495Z,17.00
2023-01-02T23:57:57.446Z,18.57
